sensor_id;sensor_type;location;lat;lon;timestamp;pressure;altitude;pressure_sealevel;temperature;humidity
75646;BME280;64237;52.438;13.240;2023-05-07T00:00:15;101743.25;;;8.94;91.86
75646;BME280;64237;52.438;13.240;2023-05-07T00:02:46;101744.31;;;8.93;91.84
75646;BME280;64237;52.438;13.240;2023-05-07T00:05:14;101744.31;;;8.93;91.56
75646;BME280;64237;52.438;13.240;2023-05-07T00:07:40;101746.84;;;8.88;90.31
75646;BME280;64237;52.438;13.240;2023-05-07T00:10:10;101750.25;;;8.90;91.14
75646;BME280;64237;52.438;13.240;2023-05-07T00:12:35;101744.13;;;8.95;91.78
75646;BME280;64237;52.438;13.240;2023-05-07T00:15:02;101749.44;;;8.97;91.41
75646;BME280;64237;52.438;13.240;2023-05-07T00:17:28;101743.50;;;9.00;91.47
75646;BME280;64237;52.438;13.240;2023-05-07T00:19:54;101747.72;;;8.96;90.63
75646;BME280;64237;52.438;13.240;2023-05-07T00:22:19;101749.00;;;9.00;91.02
75646;BME280;64237;52.438;13.240;2023-05-07T00:24:44;101750.47;;;8.96;90.56
75646;BME280;64237;52.438;13.240;2023-05-07T00:27:10;101744.78;;;9.04;91.74
75646;BME280;64237;52.438;13.240;2023-05-07T00:29:35;101747.09;;;9.00;90.82
75646;BME280;64237;52.438;13.240;2023-05-07T00:32:01;101738.19;;;8.98;91.17
75646;BME280;64237;52.438;13.240;2023-05-07T00:34:27;101749.00;;;9.00;91.68
75646;BME280;64237;52.438;13.240;2023-05-07T00:36:52;101745.19;;;9.01;91.95
75646;BME280;64237;52.438;13.240;2023-05-07T00:39:18;101747.09;;;8.93;90.67
75646;BME280;64237;52.438;13.240;2023-05-07T00:41:46;101744.56;;;8.99;91.55
75646;BME280;64237;52.438;13.240;2023-05-07T00:44:15;101739.69;;;9.01;90.83
75646;BME280;64237;52.438;13.240;2023-05-07T00:46:44;101746.03;;;8.94;90.27
75646;BME280;64237;52.438;13.240;2023-05-07T00:49:16;101748.38;;;8.98;91.53
75646;BME280;64237;52.438;13.240;2023-05-07T00:51:42;101745.19;;;9.01;90.93
75646;BME280;64237;52.438;13.240;2023-05-07T00:54:07;101736.69;;;8.96;90.88
75646;BME280;64237;52.438;13.240;2023-05-07T00:56:33;101740.09;;;8.98;90.56
75646;BME280;64237;52.438;13.240;2023-05-07T00:59:01;101737.94;;;8.93;89.92
75646;BME280;64237;52.438;13.240;2023-05-07T01:01:29;101736.28;;;8.99;89.68
75646;BME280;64237;52.438;13.240;2023-05-07T01:03:56;101740.50;;;8.94;89.81
75646;BME280;64237;52.438;13.240;2023-05-07T01:06:23;101733.06;;;8.95;89.39
75646;BME280;64237;52.438;13.240;2023-05-07T01:08:50;101735.22;;;9.00;90.33
75646;BME280;64237;52.438;13.240;2023-05-07T01:11:18;101740.97;;;9.05;91.15
75646;BME280;64237;52.438;13.240;2023-05-07T01:13:46;101736.31;;;9.05;90.55
75646;BME280;64237;52.438;13.240;2023-05-07T01:16:17;101741.38;;;9.02;90.86
75646;BME280;64237;52.438;13.240;2023-05-07T01:18:43;101736.91;;;9.01;89.51
75646;BME280;64237;52.438;13.240;2023-05-07T01:21:15;101741.81;;;9.05;89.24
75646;BME280;64237;52.438;13.240;2023-05-07T01:23:42;101737.56;;;9.03;89.06
75646;BME280;64237;52.438;13.240;2023-05-07T01:26:07;101735.03;;;9.08;89.20
75646;BME280;64237;52.438;13.240;2023-05-07T01:28:32;101735.88;;;9.02;88.06
75646;BME280;64237;52.438;13.240;2023-05-07T01:31:04;101733.75;;;9.04;89.27
75646;BME280;64237;52.438;13.240;2023-05-07T01:33:33;101725.22;;;8.99;88.17
75646;BME280;64237;52.438;13.240;2023-05-07T01:36:00;101736.47;;;8.97;88.06
75646;BME280;64237;52.438;13.240;2023-05-07T01:38:28;101724.41;;;9.05;88.15
75646;BME280;64237;52.438;13.240;2023-05-07T01:40:57;101733.75;;;9.04;88.52
75646;BME280;64237;52.438;13.240;2023-05-07T01:43:22;101739.88;;;8.99;88.62
75646;BME280;64237;52.438;13.240;2023-05-07T01:45:48;101739.69;;;9.01;87.96
75646;BME280;64237;52.438;13.240;2023-05-07T01:48:15;101740.53;;;9.01;88.74
75646;BME280;64237;52.438;13.240;2023-05-07T01:50:41;101739.69;;;9.01;87.81
75646;BME280;64237;52.438;13.240;2023-05-07T01:53:07;101745.59;;;8.98;89.47
75646;BME280;64237;52.438;13.240;2023-05-07T01:55:33;101737.09;;;8.92;89.49
75646;BME280;64237;52.438;13.240;2023-05-07T01:58:04;101742.66;;;8.99;89.32
75646;BME280;64237;52.438;13.240;2023-05-07T02:00:35;101746.06;;;9.01;88.95
75646;BME280;64237;52.438;13.240;2023-05-07T02:03:01;101747.31;;;8.99;88.31
75646;BME280;64237;52.438;13.240;2023-05-07T02:05:26;101750.31;;;9.04;88.53
75646;BME280;64237;52.438;13.240;2023-05-07T02:07:51;101750.94;;;9.06;88.66
75646;BME280;64237;52.438;13.240;2023-05-07T02:10:17;101758.34;;;8.99;88.58
75646;BME280;64237;52.438;13.240;2023-05-07T02:12:42;101766.63;;;8.99;89.13
75646;BME280;64237;52.438;13.240;2023-05-07T02:15:13;101759.41;;;8.98;88.04
75646;BME280;64237;52.438;13.240;2023-05-07T02:17:58;101759.66;;;9.03;89.11
75646;BME280;64237;52.438;13.240;2023-05-07T02:20:27;101750.47;;;8.96;87.89
75646;BME280;64237;52.438;13.240;2023-05-07T02:22:56;101754.31;;;8.94;89.00
75646;BME280;64237;52.438;13.240;2023-05-07T02:25:21;101761.53;;;8.96;89.58
75646;BME280;64237;52.438;13.240;2023-05-07T02:27:46;101765.56;;;9.00;88.05
75646;BME280;64237;52.438;13.240;2023-05-07T02:30:13;101760.44;;;8.90;87.90
75646;BME280;64237;52.438;13.240;2023-05-07T02:32:39;101762.59;;;8.94;88.13
75646;BME280;64237;52.438;13.240;2023-05-07T02:35:05;101768.72;;;8.90;88.06
75646;BME280;64237;52.438;13.240;2023-05-07T02:37:30;101765.53;;;8.86;87.73
75646;BME280;64237;52.438;13.240;2023-05-07T02:39:56;101765.09;;;8.83;88.22
75646;BME280;64237;52.438;13.240;2023-05-07T02:42:21;101768.91;;;8.88;88.39
75646;BME280;64237;52.438;13.240;2023-05-07T02:44:46;101764.69;;;8.92;87.76
75646;BME280;64237;52.438;13.240;2023-05-07T02:47:14;101770.84;;;8.94;87.51
75646;BME280;64237;52.438;13.240;2023-05-07T02:49:39;101768.91;;;8.88;87.57
75646;BME280;64237;52.438;13.240;2023-05-07T02:52:04;101776.59;;;8.93;87.38
75646;BME280;64237;52.438;13.240;2023-05-07T02:54:30;101778.06;;;8.89;86.84
75646;BME280;64237;52.438;13.240;2023-05-07T02:56:55;101776.59;;;8.86;87.87
75646;BME280;64237;52.438;13.240;2023-05-07T02:59:21;101779.09;;;8.81;87.76
75646;BME280;64237;52.438;13.240;2023-05-07T03:01:46;101773.19;;;8.84;87.65
75646;BME280;64237;52.438;13.240;2023-05-07T03:04:13;101784.22;;;8.84;88.56
75646;BME280;64237;52.438;13.240;2023-05-07T03:06:41;101783.16;;;8.85;87.19
75646;BME280;64237;52.438;13.240;2023-05-07T03:09:07;101793.53;;;8.83;87.74
75646;BME280;64237;52.438;13.240;2023-05-07T03:11:32;101793.13;;;8.86;87.23
75646;BME280;64237;52.438;13.240;2023-05-07T03:14:01;101785.91;;;8.85;87.56
75646;BME280;64237;52.438;13.240;2023-05-07T03:16:26;101783.81;;;8.87;88.89
75646;BME280;64237;52.438;13.240;2023-05-07T03:18:52;101792.69;;;8.89;87.72
75646;BME280;64237;52.438;13.240;2023-05-07T03:21:23;101783.38;;;8.90;86.83
75646;BME280;64237;52.438;13.240;2023-05-07T03:23:49;101786.78;;;8.92;86.49
75646;BME280;64237;52.438;13.240;2023-05-07T03:26:14;101783.81;;;8.94;86.92
75646;BME280;64237;52.438;13.240;2023-05-07T03:28:40;101778.28;;;8.87;86.43
75646;BME280;64237;52.438;13.240;2023-05-07T03:31:05;101788.03;;;8.83;85.47
75646;BME280;64237;52.438;13.240;2023-05-07T03:33:33;101788.88;;;8.90;86.63
75646;BME280;64237;52.438;13.240;2023-05-07T03:35:59;101787.19;;;8.89;87.27
75646;BME280;64237;52.438;13.240;2023-05-07T03:38:25;101787.38;;;8.88;85.89
75646;BME280;64237;52.438;13.240;2023-05-07T03:40:50;101789.31;;;8.87;86.36
75646;BME280;64237;52.438;13.240;2023-05-07T03:43:16;101796.97;;;8.92;85.51
75646;BME280;64237;52.438;13.240;2023-05-07T03:45:41;101797.84;;;8.99;86.54
75646;BME280;64237;52.438;13.240;2023-05-07T03:48:07;101798.66;;;8.93;87.56
75646;BME280;64237;52.438;13.240;2023-05-07T03:50:32;101810.16;;;8.97;87.27
75646;BME280;64237;52.438;13.240;2023-05-07T03:52:58;101809.25;;;8.89;87.46
75646;BME280;64237;52.438;13.240;2023-05-07T03:55:23;101806.69;;;8.88;86.82
75646;BME280;64237;52.438;13.240;2023-05-07T03:57:48;101805.44;;;8.90;87.39
75646;BME280;64237;52.438;13.240;2023-05-07T04:00:14;101806.28;;;8.84;87.93
75646;BME280;64237;52.438;13.240;2023-05-07T04:02:39;101805.03;;;8.93;87.00
75646;BME280;64237;52.438;13.240;2023-05-07T04:05:04;101813.09;;;8.95;86.62
75646;BME280;64237;52.438;13.240;2023-05-07T04:07:30;101807.19;;;8.98;86.64
75646;BME280;64237;52.438;13.240;2023-05-07T04:09:55;101808.84;;;8.92;86.96
75646;BME280;64237;52.438;13.240;2023-05-07T04:12:20;101801.63;;;8.85;86.77
75646;BME280;64237;52.438;13.240;2023-05-07T04:14:46;101802.47;;;8.85;86.34
75646;BME280;64237;52.438;13.240;2023-05-07T04:17:11;101809.91;;;8.91;86.47
75646;BME280;64237;52.438;13.240;2023-05-07T04:19:37;101808.84;;;8.92;87.10
75646;BME280;64237;52.438;13.240;2023-05-07T04:22:02;101817.31;;;8.84;85.83
75646;BME280;64237;52.438;13.240;2023-05-07T04:24:31;101819.44;;;8.82;86.58
75646;BME280;64237;52.438;13.240;2023-05-07T04:26:56;101830.28;;;8.84;86.45
75646;BME280;64237;52.438;13.240;2023-05-07T04:29:23;101833.25;;;8.89;86.02
75646;BME280;64237;52.438;13.240;2023-05-07T04:31:49;101833.88;;;8.84;86.02
75646;BME280;64237;52.438;13.240;2023-05-07T04:34:15;101821.34;;;8.82;86.77
75646;BME280;64237;52.438;13.240;2023-05-07T04:36:40;101835.34;;;8.80;85.90
75646;BME280;64237;52.438;13.240;2023-05-07T04:39:05;101827.31;;;8.85;86.49
75646;BME280;64237;52.438;13.240;2023-05-07T04:41:32;101836.44;;;8.86;87.41
75646;BME280;64237;52.438;13.240;2023-05-07T04:43:57;101831.34;;;8.89;86.86
75646;BME280;64237;52.438;13.240;2023-05-07T04:46:26;101839.81;;;8.88;86.46
75646;BME280;64237;52.438;13.240;2023-05-07T04:48:51;101842.38;;;8.89;87.13
75646;BME280;64237;52.438;13.240;2023-05-07T04:51:16;101837.94;;;8.95;86.74
75646;BME280;64237;52.438;13.240;2023-05-07T04:53:42;101837.34;;;9.00;86.51
75646;BME280;64237;52.438;13.240;2023-05-07T04:56:08;101844.56;;;9.01;85.80
75646;BME280;64237;52.438;13.240;2023-05-07T04:58:34;101846.91;;;9.04;85.63
75646;BME280;64237;52.438;13.240;2023-05-07T05:00:59;101844.56;;;9.01;85.11
75646;BME280;64237;52.438;13.240;2023-05-07T05:03:25;101856.00;;;8.98;84.90
75646;BME280;64237;52.438;13.240;2023-05-07T05:05:51;101860.06;;;9.02;86.18
75646;BME280;64237;52.438;13.240;2023-05-07T05:08:17;101863.44;;;8.97;85.15
75646;BME280;64237;52.438;13.240;2023-05-07T05:10:42;101866.22;;;9.04;84.43
75646;BME280;64237;52.438;13.240;2023-05-07T05:13:08;101867.44;;;8.94;83.90
75646;BME280;64237;52.438;13.240;2023-05-07T05:15:34;101869.19;;;9.02;85.53
75646;BME280;64237;52.438;13.240;2023-05-07T05:18:00;101866.22;;;9.04;84.55
75646;BME280;64237;52.438;13.240;2023-05-07T05:20:25;101861.56;;;9.11;84.98
75646;BME280;64237;52.438;13.240;2023-05-07T05:22:51;101867.50;;;9.01;84.49
75646;BME280;64237;52.438;13.240;2023-05-07T05:25:16;101860.72;;;9.04;84.28
75646;BME280;64237;52.438;13.240;2023-05-07T05:27:41;101875.56;;;9.03;83.40
75646;BME280;64237;52.438;13.240;2023-05-07T05:30:07;101872.41;;;9.06;84.28
75646;BME280;64237;52.438;13.240;2023-05-07T05:32:32;101863.72;;;9.09;83.27
75646;BME280;64237;52.438;13.240;2023-05-07T05:34:58;101858.81;;;9.11;84.63
75646;BME280;64237;52.438;13.240;2023-05-07T05:37:23;101873.06;;;9.08;84.58
75646;BME280;64237;52.438;13.240;2023-05-07T05:39:48;101859.88;;;9.10;83.35
75646;BME280;64237;52.438;13.240;2023-05-07T05:42:14;101859.47;;;9.13;82.01
75646;BME280;64237;52.438;13.240;2023-05-07T05:44:39;101867.34;;;9.16;83.36
75646;BME280;64237;52.438;13.240;2023-05-07T05:47:05;101872.69;;;9.24;82.42
75646;BME280;64237;52.438;13.240;2023-05-07T05:49:30;101872.06;;;9.35;82.20
75646;BME280;64237;52.438;13.240;2023-05-07T05:51:55;101869.44;;;10.41;79.69
75646;BME280;64237;52.438;13.240;2023-05-07T05:54:21;101869.00;;;10.04;77.86
75646;BME280;64237;52.438;13.240;2023-05-07T05:56:46;101871.97;;;9.83;78.69
75646;BME280;64237;52.438;13.240;2023-05-07T05:59:12;101875.38;;;9.85;79.52
75646;BME280;64237;52.438;13.240;2023-05-07T06:01:38;101868.78;;;9.73;80.10
75646;BME280;64237;52.438;13.240;2023-05-07T06:04:04;101875.78;;;9.82;80.56
75646;BME280;64237;52.438;13.240;2023-05-07T06:06:30;101875.78;;;9.82;79.76
75646;BME280;64237;52.438;13.240;2023-05-07T06:08:56;101874.53;;;9.97;81.37
75646;BME280;64237;52.438;13.240;2023-05-07T06:11:22;101886.88;;;10.02;79.89
75646;BME280;64237;52.438;13.240;2023-05-07T06:13:47;101886.03;;;9.88;78.41
75646;BME280;64237;52.438;13.240;2023-05-07T06:16:13;101898.38;;;10.05;78.47
75646;BME280;64237;52.438;13.240;2023-05-07T06:18:39;101878.78;;;10.00;79.06
75646;BME280;64237;52.438;13.240;2023-05-07T06:21:04;101890.72;;;10.07;79.44
75646;BME280;64237;52.438;13.240;2023-05-07T06:23:30;101887.94;;;9.94;77.18
75646;BME280;64237;52.438;13.240;2023-05-07T06:25:55;101893.25;;;10.02;77.69
75646;BME280;64237;52.438;13.240;2023-05-07T06:28:20;101886.69;;;10.23;80.41
75646;BME280;64237;52.438;13.240;2023-05-07T06:30:46;101881.78;;;10.05;78.17
75646;BME280;64237;52.438;13.240;2023-05-07T06:33:11;101906.44;;;10.07;78.04
75646;BME280;64237;52.438;13.240;2023-05-07T06:35:37;101901.78;;;10.07;78.18
75646;BME280;64237;52.438;13.240;2023-05-07T06:38:02;101904.75;;;10.06;78.38
75646;BME280;64237;52.438;13.240;2023-05-07T06:40:27;101904.75;;;10.06;78.10
75646;BME280;64237;52.438;13.240;2023-05-07T06:42:53;101923.72;;;10.28;78.55
75646;BME280;64237;52.438;13.240;2023-05-07T06:45:19;101917.97;;;10.23;77.61
75646;BME280;64237;52.438;13.240;2023-05-07T06:47:45;101911.16;;;10.19;77.86
75646;BME280;64237;52.438;13.240;2023-05-07T06:50:11;101913.72;;;10.21;77.29
75646;BME280;64237;52.438;13.240;2023-05-07T06:52:36;101911.56;;;10.43;78.94
75646;BME280;64237;52.438;13.240;2023-05-07T06:55:01;101910.31;;;10.52;76.53
75646;BME280;64237;52.438;13.240;2023-05-07T06:57:27;101909.88;;;10.55;76.13
75646;BME280;64237;52.438;13.240;2023-05-07T06:59:52;101909.47;;;10.51;75.14
75646;BME280;64237;52.438;13.240;2023-05-07T07:02:18;101912.44;;;10.43;76.57
75646;BME280;64237;52.438;13.240;2023-05-07T07:04:43;101903.53;;;10.35;77.22
75646;BME280;64237;52.438;13.240;2023-05-07T07:07:10;101913.72;;;10.34;77.00
75646;BME280;64237;52.438;13.240;2023-05-07T07:09:35;101916.91;;;10.51;76.40
75646;BME280;64237;52.438;13.240;2023-05-07T07:12:00;101911.16;;;10.59;75.92
75646;BME280;64237;52.438;13.240;2023-05-07T07:14:26;101914.75;;;10.79;76.59
75646;BME280;64237;52.438;13.240;2023-05-07T07:16:51;101916.25;;;10.75;75.90
75646;BME280;64237;52.438;13.240;2023-05-07T07:19:16;101913.03;;;10.72;75.44
75646;BME280;64237;52.438;13.240;2023-05-07T07:21:42;101920.50;;;10.64;76.26
75646;BME280;64237;52.438;13.240;2023-05-07T07:24:07;101920.03;;;11.01;74.13
75646;BME280;64237;52.438;13.240;2023-05-07T07:26:32;101927.69;;;10.85;75.74
75646;BME280;64237;52.438;13.240;2023-05-07T07:28:58;101918.50;;;11.05;76.52
75646;BME280;64237;52.438;13.240;2023-05-07T07:31:23;101927.16;;;11.28;75.83
75646;BME280;64237;52.438;13.240;2023-05-07T07:33:49;101915.75;;;11.49;74.84
75646;BME280;64237;52.438;13.240;2023-05-07T07:36:15;101920.75;;;11.34;74.36
75646;BME280;64237;52.438;13.240;2023-05-07T07:38:40;101919.03;;;11.40;73.14
75646;BME280;64237;52.438;13.240;2023-05-07T07:41:08;101914.75;;;11.37;73.57
75646;BME280;64237;52.438;13.240;2023-05-07T07:43:33;101916.88;;;11.42;73.29
75646;BME280;64237;52.438;13.240;2023-05-07T07:45:58;101913.34;;;11.21;72.59
75646;BME280;64237;52.438;13.240;2023-05-07T07:48:24;101912.00;;;11.37;73.47
75646;BME280;64237;52.438;13.240;2023-05-07T07:50:49;101916.84;;;11.48;73.75
75646;BME280;64237;52.438;13.240;2023-05-07T07:53:16;101915.59;;;11.44;71.95
75646;BME280;64237;52.438;13.240;2023-05-07T07:55:41;101917.72;;;11.42;72.52
75646;BME280;64237;52.438;13.240;2023-05-07T07:58:07;101914.00;;;11.61;71.71
75646;BME280;64237;52.438;13.240;2023-05-07T08:00:32;101921.50;;;11.54;70.56
75646;BME280;64237;52.438;13.240;2023-05-07T08:02:57;101920.19;;;11.63;71.50
75646;BME280;64237;52.438;13.240;2023-05-07T08:05:23;101926.38;;;11.65;71.11
75646;BME280;64237;52.438;13.240;2023-05-07T08:07:48;101921.81;;;11.84;71.52
75646;BME280;64237;52.438;13.240;2023-05-07T08:10:18;101914.75;;;12.13;69.11
75646;BME280;64237;52.438;13.240;2023-05-07T08:12:48;101918.00;;;12.10;69.74
75646;BME280;64237;52.438;13.240;2023-05-07T08:15:14;101923.25;;;12.18;69.54
75646;BME280;64237;52.438;13.240;2023-05-07T08:17:39;101921.22;;;12.07;70.56
75646;BME280;64237;52.438;13.240;2023-05-07T08:20:05;101911.28;;;12.24;68.25
75646;BME280;64237;52.438;13.240;2023-05-07T08:22:31;101922.81;;;12.71;72.32
75646;BME280;64237;52.438;13.240;2023-05-07T08:24:56;101926.25;;;13.46;66.71
75646;BME280;64237;52.438;13.240;2023-05-07T08:27:22;101914.00;;;13.35;66.15
75646;BME280;64237;52.438;13.240;2023-05-07T08:29:47;101926.81;;;13.36;65.11
75646;BME280;64237;52.438;13.240;2023-05-07T08:32:14;101909.81;;;13.26;66.63
75646;BME280;64237;52.438;13.240;2023-05-07T08:34:39;101915.97;;;13.10;67.53
75646;BME280;64237;52.438;13.240;2023-05-07T08:37:05;101915.06;;;12.98;66.72
75646;BME280;64237;52.438;13.240;2023-05-07T08:39:30;101919.59;;;12.92;65.56
75646;BME280;64237;52.438;13.240;2023-05-07T08:41:56;101914.38;;;13.21;64.86
75646;BME280;64237;52.438;13.240;2023-05-07T08:44:26;101921.19;;;13.25;65.63
75646;BME280;64237;52.438;13.240;2023-05-07T08:46:55;101923.84;;;12.95;65.60
75646;BME280;64237;52.438;13.240;2023-05-07T08:49:21;101926.44;;;13.33;65.58
75646;BME280;64237;52.438;13.240;2023-05-07T08:51:46;101922.41;;;13.47;67.82
75646;BME280;64237;52.438;13.240;2023-05-07T08:54:15;101924.66;;;13.38;64.30
75646;BME280;64237;52.438;13.240;2023-05-07T08:56:41;101905.72;;;13.47;62.23
75646;BME280;64237;52.438;13.240;2023-05-07T08:59:06;101921.53;;;13.47;64.27
75646;BME280;64237;52.438;13.240;2023-05-07T09:01:32;101924.16;;;13.05;63.44
75646;BME280;64237;52.438;13.240;2023-05-07T09:03:58;101925.66;;;13.26;65.89
75646;BME280;64237;52.438;13.240;2023-05-07T09:06:23;101920.41;;;13.36;64.73
75646;BME280;64237;52.438;13.240;2023-05-07T09:08:53;101921.16;;;13.43;61.89
75646;BME280;64237;52.438;13.240;2023-05-07T09:11:23;101919.91;;;13.57;63.61
75646;BME280;64237;52.438;13.240;2023-05-07T09:13:54;101919.56;;;13.65;64.32
75646;BME280;64237;52.438;13.240;2023-05-07T09:16:23;101935.72;;;14.05;62.78
75646;BME280;64237;52.438;13.240;2023-05-07T09:18:52;101940.22;;;14.06;63.47
75646;BME280;64237;52.438;13.240;2023-05-07T09:21:21;101935.56;;;14.00;62.71
75646;BME280;64237;52.438;13.240;2023-05-07T09:23:50;101930.16;;;14.05;61.70
75646;BME280;64237;52.438;13.240;2023-05-07T09:26:15;101927.66;;;13.85;60.35
75646;BME280;64237;52.438;13.240;2023-05-07T09:28:42;101926.13;;;13.71;61.83
75646;BME280;64237;52.438;13.240;2023-05-07T09:31:09;101926.69;;;13.80;60.84
75646;BME280;64237;52.438;13.240;2023-05-07T09:33:34;101914.25;;;13.94;60.81
75646;BME280;64237;52.438;13.240;2023-05-07T09:36:07;101926.38;;;14.53;60.06
75646;BME280;64237;52.438;13.240;2023-05-07T09:38:33;101924.72;;;14.75;58.87
75646;BME280;64237;52.438;13.240;2023-05-07T09:41:12;101936.81;;;14.57;57.03
75646;BME280;64237;52.438;13.240;2023-05-07T09:43:38;101936.44;;;14.42;57.59
75646;BME280;64237;52.438;13.240;2023-05-07T09:46:11;101942.38;;;14.57;58.01
75646;BME280;64237;52.438;13.240;2023-05-07T09:48:39;101938.13;;;14.43;58.61
75646;BME280;64237;52.438;13.240;2023-05-07T09:51:11;101931.03;;;14.17;58.39
75646;BME280;64237;52.438;13.240;2023-05-07T09:53:40;101943.16;;;13.93;61.25
75646;BME280;64237;52.438;13.240;2023-05-07T09:56:14;101939.59;;;14.04;60.27
75646;BME280;64237;52.438;13.240;2023-05-07T09:58:41;101950.25;;;14.07;59.43
75646;BME280;64237;52.438;13.240;2023-05-07T10:01:06;101932.09;;;14.16;60.33
75646;BME280;64237;52.438;13.240;2023-05-07T10:03:33;101940.09;;;14.13;62.97
75646;BME280;64237;52.438;13.240;2023-05-07T10:06:00;101951.44;;;14.11;61.76
75646;BME280;64237;52.438;13.240;2023-05-07T10:08:26;101943.16;;;13.93;59.53
75646;BME280;64237;52.438;13.240;2023-05-07T10:10:52;101945.88;;;14.11;58.24
75646;BME280;64237;52.438;13.240;2023-05-07T10:13:19;101943.94;;;14.12;60.54
75646;BME280;64237;52.438;13.240;2023-05-07T10:15:47;101944.16;;;13.98;61.40
75646;BME280;64237;52.438;13.240;2023-05-07T10:18:16;101941.19;;;14.65;59.86
75646;BME280;64237;52.438;13.240;2023-05-07T10:20:47;101944.47;;;14.85;59.08
75646;BME280;64237;52.438;13.240;2023-05-07T10:23:19;101949.91;;;14.80;60.55
75646;BME280;64237;52.438;13.240;2023-05-07T10:25:48;101949.66;;;14.47;60.20
75646;BME280;64237;52.438;13.240;2023-05-07T10:28:18;101946.09;;;14.39;59.25
75646;BME280;64237;52.438;13.240;2023-05-07T10:31:03;101955.13;;;14.23;58.90
75646;BME280;64237;52.438;13.240;2023-05-07T10:33:34;101957.66;;;14.78;57.58
75646;BME280;64237;52.438;13.240;2023-05-07T10:36:01;101945.56;;;14.84;57.04
75646;BME280;64237;52.438;13.240;2023-05-07T10:38:29;101948.59;;;14.71;57.65
75646;BME280;64237;52.438;13.240;2023-05-07T10:40:55;101944.75;;;15.47;56.86
75646;BME280;64237;52.438;13.240;2023-05-07T10:43:20;101951.41;;;15.46;55.98
75646;BME280;64237;52.438;13.240;2023-05-07T10:46:11;101966.06;;;15.76;56.17
75646;BME280;64237;52.438;13.240;2023-05-07T10:49:06;101952.47;;;15.80;53.37
75646;BME280;64237;52.438;13.240;2023-05-07T10:51:32;101954.59;;;15.90;54.00
75646;BME280;64237;52.438;13.240;2023-05-07T10:54:27;101948.91;;;15.33;55.35
75646;BME280;64237;52.438;13.240;2023-05-07T10:56:53;101948.56;;;15.18;59.60
75646;BME280;64237;52.438;13.240;2023-05-07T11:02:00;101948.94;;;14.63;56.18
75646;BME280;64237;52.438;13.240;2023-05-07T11:04:28;101950.00;;;15.84;53.68
75646;BME280;64237;52.438;13.240;2023-05-07T11:15:05;101942.00;;;16.99;51.92
75646;BME280;64237;52.438;13.240;2023-05-07T11:17:31;101939.78;;;17.40;51.82
75646;BME280;64237;52.438;13.240;2023-05-07T11:20:01;101937.63;;;17.47;49.19
75646;BME280;64237;52.438;13.240;2023-05-07T11:22:35;101946.63;;;17.49;48.65
75646;BME280;64237;52.438;13.240;2023-05-07T11:25:03;101935.25;;;16.78;52.29
75646;BME280;64237;52.438;13.240;2023-05-07T11:27:29;101936.00;;;17.29;50.80
75646;BME280;64237;52.438;13.240;2023-05-07T11:29:55;101931.50;;;16.56;50.58
75646;BME280;64237;52.438;13.240;2023-05-07T11:32:27;101931.25;;;16.58;51.59
75646;BME280;64237;52.438;13.240;2023-05-07T11:34:54;101925.94;;;17.50;49.13
75646;BME280;64237;52.438;13.240;2023-05-07T11:37:20;101923.13;;;17.50;48.67
75646;BME280;64237;52.438;13.240;2023-05-07T11:39:46;101923.66;;;17.47;46.40
75646;BME280;64237;52.438;13.240;2023-05-07T11:42:34;101925.41;;;17.31;47.25
75646;BME280;64237;52.438;13.240;2023-05-07T11:45:01;101932.88;;;16.87;50.14
75646;BME280;64237;52.438;13.240;2023-05-07T11:47:29;101930.50;;;18.05;46.48
75646;BME280;64237;52.438;13.240;2023-05-07T11:49:55;101924.00;;;17.72;47.45
75646;BME280;64237;52.438;13.240;2023-05-07T11:52:22;101928.91;;;18.73;47.66
75646;BME280;64237;52.438;13.240;2023-05-07T11:54:52;101921.31;;;18.41;45.42
75646;BME280;64237;52.438;13.240;2023-05-07T11:57:18;101915.69;;;18.68;45.06
75646;BME280;64237;52.438;13.240;2023-05-07T11:59:43;101911.31;;;19.25;45.52
75646;BME280;64237;52.438;13.240;2023-05-07T12:02:19;101912.06;;;19.67;44.68
75646;BME280;64237;52.438;13.240;2023-05-07T12:04:44;101913.16;;;19.61;44.37
75646;BME280;64237;52.438;13.240;2023-05-07T12:07:13;101923.56;;;19.61;42.66
75646;BME280;64237;52.438;13.240;2023-05-07T12:09:43;101912.00;;;19.52;42.43
75646;BME280;64237;52.438;13.240;2023-05-07T12:12:09;101920.16;;;19.06;42.00
75646;BME280;64237;52.438;13.240;2023-05-07T12:14:44;101926.75;;;18.85;43.98
75646;BME280;64237;52.438;13.240;2023-05-07T12:17:19;101927.66;;;19.43;42.31
75646;BME280;64237;52.438;13.240;2023-05-07T12:19:45;101925.25;;;19.62;43.38
75646;BME280;64237;52.438;13.240;2023-05-07T12:22:11;101928.44;;;19.33;42.95
75646;BME280;64237;52.438;13.240;2023-05-07T12:24:56;101919.81;;;19.45;43.38
75646;BME280;64237;52.438;13.240;2023-05-07T12:27:22;101926.94;;;19.15;41.03
75646;BME280;64237;52.438;13.240;2023-05-07T12:29:49;101932.72;;;19.46;43.23
75646;BME280;64237;52.438;13.240;2023-05-07T12:32:16;101937.38;;;18.78;43.28
75646;BME280;64237;52.438;13.240;2023-05-07T12:34:42;101927.44;;;18.65;41.64
75646;BME280;64237;52.438;13.240;2023-05-07T12:37:07;101928.91;;;18.73;46.31
75646;BME280;64237;52.438;13.240;2023-05-07T12:39:33;101924.16;;;18.46;45.12
75646;BME280;64237;52.438;13.240;2023-05-07T12:42:01;101927.44;;;18.33;46.02
75646;BME280;64237;52.438;13.240;2023-05-07T12:44:31;101933.72;;;17.92;43.51
75646;BME280;64237;52.438;13.240;2023-05-07T12:46:57;101931.38;;;17.84;45.10
75646;BME280;64237;52.438;13.240;2023-05-07T12:49:23;101929.78;;;18.14;45.63
75646;BME280;64237;52.438;13.240;2023-05-07T12:51:50;101932.97;;;17.74;46.83
75646;BME280;64237;52.438;13.240;2023-05-07T12:54:31;101931.28;;;17.73;45.30